Time;durP1;ratioP1;P1;durP2;ratioP2;P2;SDS_P1;SDS_P2;PMS_P1;PMS_P2;Temp;Humidity;BMP_temperature;BMP_pressure;BME280_temperature;BME280_humidity;BME280_pressure;Samples;Min_cycle;Max_cycle;Signal;HPM_P1;HPM_P2
2022/10/15 00:01:07;;;;;;;27.45;19.52;;;;;;;;;;4971661;28;20138;-66
2022/10/15 00:03:34;;;;;;;23.48;17.58;;;;;;;;;;4971915;28;20113;-66
2022/10/15 00:06:02;;;;;;;26.63;16.27;;;;;;;;;;4970854;28;20109;-69
2022/10/15 00:08:27;;;;;;;23.80;16.70;;;;;;;;;;4970839;28;20093;-66
2022/10/15 00:10:53;;;;;;;24.95;17.83;;;;;;;;;;4969922;28;20186;-66
2022/10/15 00:13:18;;;;;;;22.52;16.33;;;;;;;;;;4970154;28;20167;-66
2022/10/15 00:15:43;;;;;;;26.30;18.15;;;;;;;;;;4952460;28;20038;-66
2022/10/15 00:18:08;;;;;;;25.40;17.83;;;;;;;;;;4970832;28;20030;-66
2022/10/15 00:20:34;;;;;;;22.17;16.67;;;;;;;;;;4971992;28;20533;-66
2022/10/15 00:22:59;;;;;;;26.30;16.23;;;;;;;;;;4970570;28;20867;-66
2022/10/15 00:25:24;;;;;;;28.10;17.60;;;;;;;;;;4970426;28;20031;-66
2022/10/15 00:27:49;;;;;;;25.30;17.08;;;;;;;;;;4971197;28;20031;-66
2022/10/15 00:30:14;;;;;;;23.75;17.85;;;;;;;;;;4956465;28;20034;-67
2022/10/15 00:32:40;;;;;;;24.30;16.95;;;;;;;;;;4966816;28;20821;-66
2022/10/15 00:35:05;;;;;;;22.13;16.27;;;;;;;;;;4952470;28;20084;-68
2022/10/15 00:37:30;;;;;;;23.17;17.92;;;;;;;;;;4971032;28;20724;-66
2022/10/15 00:39:56;;;;;;;23.60;17.40;;;;;;;;;;4971806;28;20026;-66
2022/10/15 00:42:22;;;;;;;23.80;17.05;;;;;;;;;;4968373;28;20690;-66
2022/10/15 00:44:47;;;;;;;24.30;17.77;;;;;;;;;;4971492;28;20026;-66
2022/10/15 00:47:13;;;;;;;28.65;17.75;;;;;;;;;;4969690;28;20478;-66
2022/10/15 00:49:39;;;;;;;25.52;17.63;;;;;;;;;;4971138;28;20029;-66
2022/10/15 00:52:22;;;;;;;24.73;17.85;;;;;;;;;;4971006;28;20577;-66
2022/10/15 00:55:00;;;;;;;29.67;17.98;;;;;;;;;;4971629;28;20074;-66
2022/10/15 00:57:25;;;;;;;23.58;16.92;;;;;;;;;;4969235;28;20029;-66
2022/10/15 00:59:52;;;;;;;25.98;16.75;;;;;;;;;;4968458;28;20034;-66
2022/10/15 01:02:19;;;;;;;22.05;16.65;;;;;;;;;;4970675;28;20037;-66
2022/10/15 01:04:44;;;;;;;22.90;15.73;;;;;;;;;;4972116;28;20039;-66
2022/10/15 01:07:09;;;;;;;24.77;18.05;;;;;;;;;;4974847;28;20039;-66
2022/10/15 01:09:35;;;;;;;27.92;18.50;;;;;;;;;;4973953;28;20042;-66
2022/10/15 01:12:01;;;;;;;23.88;17.08;;;;;;;;;;4974729;28;20027;-66
2022/10/15 01:14:43;;;;;;;25.48;17.10;;;;;;;;;;4972629;28;20054;-66
2022/10/15 01:17:20;;;;;;;24.38;18.85;;;;;;;;;;4973189;28;20030;-66
2022/10/15 01:19:55;;;;;;;25.60;16.52;;;;;;;;;;4972143;28;20033;-66
2022/10/15 01:22:36;;;;;;;22.70;16.67;;;;;;;;;;4971939;28;20034;-66
2022/10/15 01:25:25;;;;;;;23.95;17.38;;;;;;;;;;4971714;28;20050;-66
2022/10/15 01:27:56;;;;;;;23.27;15.77;;;;;;;;;;4973123;28;20034;-66
2022/10/15 01:30:22;;;;;;;22.58;17.27;;;;;;;;;;4970668;28;20058;-65
2022/10/15 01:32:52;;;;;;;25.77;17.58;;;;;;;;;;4972938;28;20136;-66
2022/10/15 01:35:30;;;;;;;23.50;17.73;;;;;;;;;;4958229;28;20065;-66
2022/10/15 01:37:57;;;;;;;20.85;15.88;;;;;;;;;;4972901;28;20026;-66
2022/10/15 01:40:28;;;;;;;24.27;17.85;;;;;;;;;;4972903;28;20023;-66
2022/10/15 01:42:56;;;;;;;21.85;16.02;;;;;;;;;;4971643;28;20027;-66
2022/10/15 01:45:26;;;;;;;23.08;17.27;;;;;;;;;;4971407;28;20011;-65
2022/10/15 01:47:54;;;;;;;24.58;17.95;;;;;;;;;;4971441;28;20165;-66
2022/10/15 01:50:20;;;;;;;20.88;16.17;;;;;;;;;;4971923;28;20034;-66
2022/10/15 01:52:47;;;;;;;24.60;17.23;;;;;;;;;;4972279;28;20030;-66
2022/10/15 01:55:14;;;;;;;22.10;16.00;;;;;;;;;;4972208;28;20037;-66
2022/10/15 01:57:41;;;;;;;23.23;15.80;;;;;;;;;;4972542;28;20058;-66
2022/10/15 02:00:06;;;;;;;22.10;16.08;;;;;;;;;;4972170;28;20982;-66
2022/10/15 02:02:31;;;;;;;23.63;15.85;;;;;;;;;;4972045;28;20027;-66
2022/10/15 02:04:57;;;;;;;20.05;15.35;;;;;;;;;;4970935;28;20023;-66
2022/10/15 02:07:41;;;;;;;21.00;16.38;;;;;;;;;;4972440;28;20506;-66
2022/10/15 02:10:09;;;;;;;21.05;14.98;;;;;;;;;;4972171;28;20022;-66
2022/10/15 02:15:34;;;;;;;20.02;15.68;;;;;;;;;;5073130;27;20152;-65
2022/10/15 02:18:05;;;;;;;20.92;16.00;;;;;;;;;;5064691;28;20480;-65
2022/10/15 02:20:40;;;;;;;18.77;15.57;;;;;;;;;;5056185;28;20105;-65
2022/10/15 02:23:17;;;;;;;20.90;15.90;;;;;;;;;;5057592;28;20098;-65
2022/10/15 02:25:44;;;;;;;22.52;16.30;;;;;;;;;;5056793;28;20514;-65
2022/10/15 02:28:10;;;;;;;22.70;15.55;;;;;;;;;;5057963;28;20094;-65
2022/10/15 02:30:37;;;;;;;20.95;14.63;;;;;;;;;;5056240;28;20051;-65
2022/10/15 02:33:03;;;;;;;20.30;15.90;;;;;;;;;;5058248;28;20017;-66
2022/10/15 02:35:28;;;;;;;23.73;17.35;;;;;;;;;;5056594;28;20028;-66
2022/10/15 02:37:56;;;;;;;21.38;15.63;;;;;;;;;;5057456;28;20379;-66
2022/10/15 02:40:26;;;;;;;20.48;16.15;;;;;;;;;;5053298;28;20052;-65
2022/10/15 02:42:51;;;;;;;20.15;15.27;;;;;;;;;;5057221;28;20031;-65
2022/10/15 02:45:17;;;;;;;20.63;15.48;;;;;;;;;;5056930;28;20021;-65
2022/10/15 02:47:42;;;;;;;21.25;15.52;;;;;;;;;;5056367;28;20082;-65
2022/10/15 02:50:07;;;;;;;19.52;14.40;;;;;;;;;;5055186;28;20494;-65
2022/10/15 02:52:32;;;;;;;18.50;14.25;;;;;;;;;;5055473;28;20501;-65
2022/10/15 02:54:58;;;;;;;24.00;15.98;;;;;;;;;;5058030;28;20048;-65
2022/10/15 02:57:23;;;;;;;18.40;15.25;;;;;;;;;;5056096;28;20074;-66
2022/10/15 02:59:48;;;;;;;19.42;14.65;;;;;;;;;;5069242;28;20037;-65
2022/10/15 03:02:13;;;;;;;18.35;13.73;;;;;;;;;;5056008;28;20099;-68
2022/10/15 03:04:39;;;;;;;20.63;15.57;;;;;;;;;;5054620;28;20047;-65
2022/10/15 03:07:04;;;;;;;20.42;14.63;;;;;;;;;;5055618;28;20454;-65
2022/10/15 03:09:29;;;;;;;22.52;15.80;;;;;;;;;;5056847;28;20647;-66
2022/10/15 03:11:54;;;;;;;22.42;15.85;;;;;;;;;;5055940;28;20047;-64
2022/10/15 03:14:19;;;;;;;25.13;16.30;;;;;;;;;;5055759;28;20056;-65
2022/10/15 03:16:45;;;;;;;21.30;15.65;;;;;;;;;;5055520;28;20036;-66
2022/10/15 03:19:10;;;;;;;21.65;14.23;;;;;;;;;;5054762;28;20424;-64
2022/10/15 03:21:35;;;;;;;21.90;15.77;;;;;;;;;;5055972;28;20036;-66
2022/10/15 03:24:01;;;;;;;19.48;15.65;;;;;;;;;;5054057;28;20639;-65
2022/10/15 03:26:26;;;;;;;20.30;15.50;;;;;;;;;;5042224;28;20086;-65
2022/10/15 03:28:51;;;;;;;20.00;15.05;;;;;;;;;;5046329;28;20083;-65
2022/10/15 03:31:17;;;;;;;22.13;16.20;;;;;;;;;;5040495;28;20029;-66
2022/10/15 03:33:42;;;;;;;22.42;16.45;;;;;;;;;;5039933;28;20037;-66
2022/10/15 03:36:08;;;;;;;21.88;15.40;;;;;;;;;;5041611;28;20028;-65
2022/10/15 03:38:33;;;;;;;23.05;15.70;;;;;;;;;;5044787;28;20036;-65
2022/10/15 03:40:58;;;;;;;21.27;15.65;;;;;;;;;;5044647;28;20025;-65
2022/10/15 03:43:24;;;;;;;23.27;16.67;;;;;;;;;;5042393;28;20041;-65
2022/10/15 03:45:50;;;;;;;21.85;16.98;;;;;;;;;;5044286;28;20128;-65
2022/10/15 03:48:15;;;;;;;21.60;15.90;;;;;;;;;;5041581;28;20033;-65
2022/10/15 03:50:40;;;;;;;19.92;15.32;;;;;;;;;;5041740;28;20025;-64
2022/10/15 03:53:05;;;;;;;22.67;16.35;;;;;;;;;;5040439;28;20025;-66
2022/10/15 03:55:31;;;;;;;19.63;15.43;;;;;;;;;;5043754;28;20431;-66
2022/10/15 03:57:56;;;;;;;21.95;16.23;;;;;;;;;;5040485;28;21063;-66
2022/10/15 04:00:21;;;;;;;20.17;14.68;;;;;;;;;;5043119;28;20516;-66
2022/10/15 04:02:47;;;;;;;22.85;16.05;;;;;;;;;;5042640;28;20030;-66
2022/10/15 04:05:12;;;;;;;22.20;17.15;;;;;;;;;;5042439;28;20040;-66
2022/10/15 04:07:37;;;;;;;22.13;15.82;;;;;;;;;;5041813;28;20029;-66
2022/10/15 04:10:02;;;;;;;21.90;16.20;;;;;;;;;;5042084;28;20016;-66
2022/10/15 04:12:27;;;;;;;24.80;18.02;;;;;;;;;;5038250;28;20559;-67
2022/10/15 04:14:53;;;;;;;25.98;18.20;;;;;;;;;;5041774;28;21055;-66
2022/10/15 04:17:18;;;;;;;22.90;16.13;;;;;;;;;;5041379;28;20433;-66
2022/10/15 04:19:43;;;;;;;23.67;17.17;;;;;;;;;;5043518;28;20089;-67
2022/10/15 04:22:08;;;;;;;20.33;15.55;;;;;;;;;;5038070;28;20029;-66
2022/10/15 04:24:34;;;;;;;24.00;16.98;;;;;;;;;;5040625;28;20040;-66
2022/10/15 04:26:59;;;;;;;24.08;17.35;;;;;;;;;;5040540;28;20021;-66
2022/10/15 04:29:24;;;;;;;23.02;16.27;;;;;;;;;;5040327;28;20021;-64
2022/10/15 04:31:49;;;;;;;19.35;15.20;;;;;;;;;;5040120;28;20028;-69
2022/10/15 04:34:15;;;;;;;20.48;15.20;;;;;;;;;;5029481;28;20041;-70
2022/10/15 04:36:40;;;;;;;24.33;16.00;;;;;;;;;;5033833;28;20097;-69
2022/10/15 04:39:06;;;;;;;22.13;16.33;;;;;;;;;;5041177;28;20025;-68
2022/10/15 04:41:31;;;;;;;24.90;16.67;;;;;;;;;;5041470;28;20813;-67
2022/10/15 04:43:57;;;;;;;23.70;16.73;;;;;;;;;;5039973;28;20127;-68
2022/10/15 04:46:22;;;;;;;24.38;17.65;;;;;;;;;;5042592;28;20554;-67
2022/10/15 04:48:48;;;;;;;25.33;15.98;;;;;;;;;;5041550;28;20029;-68
2022/10/15 04:51:15;;;;;;;22.35;15.98;;;;;;;;;;5041071;28;20024;-69
2022/10/15 04:53:40;;;;;;;24.17;16.88;;;;;;;;;;5041297;28;20475;-69
2022/10/15 04:56:07;;;;;;;28.65;19.20;;;;;;;;;;5032400;28;20045;-68
2022/10/15 04:58:33;;;;;;;32.05;20.08;;;;;;;;;;5039467;28;20912;-67
2022/10/15 05:01:02;;;;;;;27.85;19.80;;;;;;;;;;5034668;28;20032;-65
2022/10/15 05:03:28;;;;;;;29.15;20.50;;;;;;;;;;5039972;28;20040;-66
2022/10/15 05:05:58;;;;;;;24.13;18.48;;;;;;;;;;5042256;28;20029;-66
2022/10/15 05:08:24;;;;;;;26.80;18.42;;;;;;;;;;5039868;28;20025;-66
2022/10/15 05:10:49;;;;;;;26.52;18.90;;;;;;;;;;5037124;28;20494;-67
2022/10/15 05:13:14;;;;;;;27.17;19.20;;;;;;;;;;5035155;28;20077;-66
2022/10/15 05:15:39;;;;;;;23.27;17.63;;;;;;;;;;5039580;28;20044;-66
2022/10/15 05:18:04;;;;;;;29.25;19.70;;;;;;;;;;5039601;28;20631;-66
2022/10/15 05:20:30;;;;;;;24.38;18.23;;;;;;;;;;5038362;28;20472;-67
2022/10/15 05:22:55;;;;;;;23.67;18.42;;;;;;;;;;5039706;28;20025;-67
2022/10/15 05:25:20;;;;;;;26.42;19.67;;;;;;;;;;5041080;28;20472;-66
2022/10/15 05:27:46;;;;;;;31.00;17.92;;;;;;;;;;5038584;28;20028;-67
2022/10/15 05:30:11;;;;;;;25.92;19.45;;;;;;;;;;5034555;28;20033;-66
2022/10/15 05:32:36;;;;;;;24.90;19.27;;;;;;;;;;5037071;28;20028;-66
2022/10/15 05:35:01;;;;;;;28.83;19.40;;;;;;;;;;5038739;28;20035;-68
2022/10/15 05:37:27;;;;;;;24.40;18.83;;;;;;;;;;5037528;28;20135;-66
2022/10/15 05:39:52;;;;;;;23.98;18.75;;;;;;;;;;5038262;28;20105;-66
2022/10/15 05:42:17;;;;;;;24.27;19.08;;;;;;;;;;5039237;28;20108;-67
2022/10/15 05:44:42;;;;;;;26.52;19.40;;;;;;;;;;5038137;28;20977;-66
2022/10/15 05:47:10;;;;;;;30.38;21.65;;;;;;;;;;5039848;28;20028;-67
2022/10/15 05:49:36;;;;;;;30.10;20.05;;;;;;;;;;5037404;28;20029;-67
2022/10/15 05:52:01;;;;;;;29.05;21.35;;;;;;;;;;5039472;28;20505;-68
2022/10/15 05:54:26;;;;;;;36.53;25.35;;;;;;;;;;5038000;28;21004;-67
2022/10/15 05:56:51;;;;;;;30.33;21.65;;;;;;;;;;5040006;28;20567;-67
2022/10/15 05:59:16;;;;;;;37.97;25.98;;;;;;;;;;5036452;28;20570;-72
2022/10/15 06:01:42;;;;;;;36.13;26.75;;;;;;;;;;5036959;28;20128;-67
2022/10/15 06:04:08;;;;;;;31.27;23.95;;;;;;;;;;5038454;28;20410;-66
2022/10/15 06:06:33;;;;;;;31.45;23.10;;;;;;;;;;5038559;28;20040;-65
2022/10/15 06:09:00;;;;;;;31.02;22.05;;;;;;;;;;5038961;28;20033;-63
2022/10/15 06:11:25;;;;;;;36.70;29.77;;;;;;;;;;5040655;28;20029;-64
2022/10/15 06:13:51;;;;;;;33.70;23.67;;;;;;;;;;5038917;28;20068;-61
2022/10/15 06:16:16;;;;;;;40.90;30.13;;;;;;;;;;5036776;28;20105;-71
2022/10/15 06:18:42;;;;;;;43.58;35.25;;;;;;;;;;5037475;28;20453;-69
2022/10/15 06:21:07;;;;;;;32.53;24.52;;;;;;;;;;5039006;28;20017;-71
2022/10/15 06:23:33;;;;;;;30.08;21.38;;;;;;;;;;5040854;28;20037;-71
2022/10/15 06:26:16;;;;;;;27.67;20.23;;;;;;;;;;5039643;28;20596;-63
2022/10/15 06:28:41;;;;;;;30.15;21.60;;;;;;;;;;5037273;28;20263;-65
2022/10/15 06:31:07;;;;;;;36.75;25.00;;;;;;;;;;5041407;28;20036;-64
2022/10/15 06:33:33;;;;;;;39.28;29.50;;;;;;;;;;5040098;28;20091;-66
2022/10/15 06:36:06;;;;;;;64.75;46.78;;;;;;;;;;5042196;28;20025;-65
2022/10/15 06:38:31;;;;;;;30.00;22.10;;;;;;;;;;5037328;28;20028;-65
2022/10/15 06:40:56;;;;;;;34.42;25.63;;;;;;;;;;5040851;28;20751;-64
2022/10/15 06:43:22;;;;;;;32.92;23.25;;;;;;;;;;5039217;28;20032;-68
2022/10/15 06:45:47;;;;;;;32.10;22.45;;;;;;;;;;5037579;28;20621;-67
2022/10/15 06:48:13;;;;;;;29.25;22.38;;;;;;;;;;5036636;28;20476;-62
2022/10/15 06:50:38;;;;;;;29.42;22.88;;;;;;;;;;5035139;28;20033;-73
2022/10/15 06:53:04;;;;;;;32.03;23.88;;;;;;;;;;5037285;28;20029;-69
2022/10/15 06:55:29;;;;;;;35.50;25.80;;;;;;;;;;5034210;28;20033;-67
2022/10/15 06:57:57;;;;;;;31.75;23.40;;;;;;;;;;5036426;28;20523;-69
2022/10/15 07:00:23;;;;;;;31.50;24.00;;;;;;;;;;5034444;28;20037;-68
2022/10/15 07:02:49;;;;;;;40.30;28.02;;;;;;;;;;5037498;28;20447;-68
2022/10/15 07:05:14;;;;;;;41.33;29.05;;;;;;;;;;5041496;28;20492;-68
2022/10/15 07:07:39;;;;;;;39.05;28.95;;;;;;;;;;5042778;28;20033;-68
2022/10/15 07:10:05;;;;;;;36.03;26.83;;;;;;;;;;5040800;28;20947;-69
2022/10/15 07:12:30;;;;;;;37.25;27.60;;;;;;;;;;5040792;28;20679;-67
2022/10/15 07:14:55;;;;;;;39.63;27.95;;;;;;;;;;5046137;28;20053;-68
2022/10/15 07:17:20;;;;;;;38.97;28.92;;;;;;;;;;5043849;28;20064;-68
2022/10/15 07:19:46;;;;;;;37.50;27.60;;;;;;;;;;5040289;28;20630;-68
2022/10/15 07:22:11;;;;;;;38.80;29.17;;;;;;;;;;5041272;28;20549;-67
2022/10/15 07:24:36;;;;;;;39.58;27.35;;;;;;;;;;5040872;28;20119;-68
2022/10/15 07:27:02;;;;;;;42.08;27.38;;;;;;;;;;5044379;28;20037;-66
2022/10/15 07:29:27;;;;;;;42.90;27.88;;;;;;;;;;5042357;28;20040;-67
2022/10/15 07:31:53;;;;;;;37.00;26.95;;;;;;;;;;5039774;28;20025;-68
2022/10/15 07:34:18;;;;;;;35.97;26.00;;;;;;;;;;5041799;28;20028;-68
2022/10/15 07:36:44;;;;;;;39.33;26.80;;;;;;;;;;5040787;28;20976;-68
2022/10/15 07:39:09;;;;;;;37.08;27.55;;;;;;;;;;5040963;28;20037;-67
2022/10/15 07:41:34;;;;;;;46.92;33.58;;;;;;;;;;5042692;28;20033;-68
2022/10/15 07:44:00;;;;;;;39.83;30.25;;;;;;;;;;5041581;28;20037;-68
2022/10/15 07:46:25;;;;;;;41.05;30.42;;;;;;;;;;5041643;28;20528;-68
2022/10/15 07:48:51;;;;;;;35.05;27.38;;;;;;;;;;5038261;28;20024;-67
2022/10/15 07:51:16;;;;;;;36.38;28.00;;;;;;;;;;5042788;28;20059;-68
2022/10/15 07:53:42;;;;;;;37.13;26.25;;;;;;;;;;5039877;28;20925;-69
2022/10/15 07:56:10;;;;;;;37.05;28.67;;;;;;;;;;5038944;28;20092;-68
2022/10/15 07:58:36;;;;;;;34.20;25.55;;;;;;;;;;5041574;28;20032;-68
2022/10/15 08:01:02;;;;;;;29.40;23.45;;;;;;;;;;5041317;28;20042;-69
2022/10/15 08:03:29;;;;;;;35.38;25.83;;;;;;;;;;5039696;28;20404;-67
2022/10/15 08:05:54;;;;;;;32.28;24.10;;;;;;;;;;5040610;28;20501;-67
2022/10/15 08:08:20;;;;;;;36.67;26.90;;;;;;;;;;5040813;28;20487;-69
2022/10/15 08:10:46;;;;;;;38.60;27.70;;;;;;;;;;5037779;28;20464;-68
2022/10/15 08:13:11;;;;;;;38.08;28.60;;;;;;;;;;5041010;28;20037;-68
2022/10/15 08:15:40;;;;;;;36.33;26.92;;;;;;;;;;5041985;28;20665;-68
2022/10/15 08:18:05;;;;;;;38.72;29.92;;;;;;;;;;5036438;28;20556;-68
2022/10/15 08:20:30;;;;;;;39.08;27.52;;;;;;;;;;5034802;28;20040;-67
2022/10/15 08:22:56;;;;;;;36.42;27.05;;;;;;;;;;5039415;28;20021;-68
2022/10/15 08:25:21;;;;;;;45.88;30.13;;;;;;;;;;5036823;28;20029;-67
2022/10/15 08:27:46;;;;;;;43.88;29.75;;;;;;;;;;5036404;28;20508;-67
2022/10/15 08:30:12;;;;;;;42.13;29.27;;;;;;;;;;5040706;28;20659;-68
2022/10/15 08:32:37;;;;;;;41.65;31.17;;;;;;;;;;5039391;28;20713;-68
2022/10/15 08:35:02;;;;;;;48.17;31.98;;;;;;;;;;5039769;28;20025;-68
2022/10/15 08:37:27;;;;;;;43.22;31.05;;;;;;;;;;5041936;28;20044;-68
2022/10/15 08:39:53;;;;;;;47.05;31.00;;;;;;;;;;5038464;28;20036;-68
2022/10/15 08:42:20;;;;;;;47.78;33.28;;;;;;;;;;5039506;28;20028;-68
2022/10/15 08:45:00;;;;;;;40.63;30.17;;;;;;;;;;5038755;28;20028;-68
2022/10/15 08:47:29;;;;;;;45.22;32.28;;;;;;;;;;5041660;28;20028;-69
2022/10/15 08:49:58;;;;;;;39.03;29.80;;;;;;;;;;5037984;28;20326;-68
2022/10/15 09:01:56;;;;;;;43.30;33.28;;;;;;;;;;4943516;28;20039;-67
2022/10/15 09:04:28;;;;;;;42.95;30.30;;;;;;;;;;4928260;28;20071;-67
2022/10/15 09:07:06;;;;;;;44.17;33.33;;;;;;;;;;4943054;28;20450;-67
2022/10/15 09:09:37;;;;;;;41.40;32.35;;;;;;;;;;4941910;28;20122;-67
2022/10/15 09:12:14;;;;;;;45.70;32.22;;;;;;;;;;4942278;28;20035;-67
2022/10/15 09:14:40;;;;;;;43.53;31.73;;;;;;;;;;4941564;28;20063;-68
2022/10/15 09:17:19;;;;;;;52.88;33.60;;;;;;;;;;4942490;28;20870;-67
2022/10/15 09:19:45;;;;;;;43.50;33.53;;;;;;;;;;4943339;28;20039;-67
2022/10/15 09:22:13;;;;;;;44.80;33.63;;;;;;;;;;4941967;28;20065;-66
2022/10/15 09:24:39;;;;;;;44.95;33.58;;;;;;;;;;4940323;28;20398;-68
2022/10/15 09:27:05;;;;;;;43.78;32.80;;;;;;;;;;4938798;28;20031;-68
2022/10/15 09:29:48;;;;;;;43.38;32.88;;;;;;;;;;4938420;28;20493;-67
2022/10/15 09:38:52;;;;;;;46.85;35.83;;;;;;;;;;5000727;28;20036;-67
2022/10/15 09:41:36;;;;;;;50.25;33.90;;;;;;;;;;5016439;28;20030;-67
2022/10/15 09:44:01;;;;;;;48.55;35.20;;;;;;;;;;5017313;28;20044;-68
2022/10/15 09:46:27;;;;;;;44.17;34.83;;;;;;;;;;5019766;28;20025;-67
2022/10/15 09:49:05;;;;;;;45.22;33.25;;;;;;;;;;5020122;28;20543;-67
2022/10/15 09:51:34;;;;;;;47.85;36.00;;;;;;;;;;5021866;28;20191;-67
2022/10/15 09:54:17;;;;;;;47.83;37.33;;;;;;;;;;5021853;28;20045;-67
2022/10/15 09:56:48;;;;;;;48.35;35.90;;;;;;;;;;5020059;28;20033;-67
2022/10/15 09:59:15;;;;;;;48.38;35.25;;;;;;;;;;5022430;28;20040;-67
2022/10/15 10:01:54;;;;;;;45.20;33.35;;;;;;;;;;5020729;28;20044;-67
2022/10/15 10:04:20;;;;;;;44.35;33.60;;;;;;;;;;5005566;28;20516;-67
2022/10/15 10:06:56;;;;;;;38.67;33.30;;;;;;;;;;5019398;28;20173;-67
2022/10/15 10:09:25;;;;;;;38.85;29.38;;;;;;;;;;5020307;28;20584;-67
2022/10/15 10:11:51;;;;;;;37.42;29.95;;;;;;;;;;5022447;28;20076;-67
2022/10/15 10:14:38;;;;;;;36.97;30.42;;;;;;;;;;5037412;28;20049;-67
2022/10/15 10:17:16;;;;;;;38.05;29.90;;;;;;;;;;5036868;28;20028;-67
2022/10/15 10:19:42;;;;;;;40.42;29.52;;;;;;;;;;5037472;28;20049;-66
2022/10/15 10:22:20;;;;;;;36.05;27.83;;;;;;;;;;5039648;28;20116;-67
2022/10/15 10:24:46;;;;;;;36.05;29.25;;;;;;;;;;5039234;28;20335;-67
2022/10/15 10:27:19;;;;;;;37.25;31.23;;;;;;;;;;5039970;28;20025;-67
2022/10/15 10:29:48;;;;;;;39.55;28.98;;;;;;;;;;5039487;28;20040;-66
2022/10/15 10:32:21;;;;;;;36.00;28.75;;;;;;;;;;5039813;28;20554;-67
2022/10/15 10:34:46;;;;;;;35.63;29.25;;;;;;;;;;5042476;28;20032;-67
2022/10/15 10:37:12;;;;;;;41.08;30.80;;;;;;;;;;5042274;28;20541;-67
2022/10/15 10:39:37;;;;;;;40.95;31.40;;;;;;;;;;5042758;28;20123;-66
2022/10/15 10:42:06;;;;;;;36.25;29.05;;;;;;;;;;5043332;28;20021;-67
2022/10/15 10:44:33;;;;;;;38.80;30.95;;;;;;;;;;5044630;28;20025;-66
2022/10/15 10:47:07;;;;;;;39.83;29.70;;;;;;;;;;5049756;28;20566;-66
2022/10/15 10:49:34;;;;;;;37.90;29.05;;;;;;;;;;5043370;28;20252;-66
2022/10/15 10:51:59;;;;;;;38.10;30.05;;;;;;;;;;5042971;28;20049;-66
2022/10/15 10:54:25;;;;;;;39.40;30.45;;;;;;;;;;5041584;28;20056;-67
2022/10/15 10:56:52;;;;;;;36.03;30.02;;;;;;;;;;5041594;28;20032;-69
2022/10/15 10:59:27;;;;;;;35.85;29.55;;;;;;;;;;5042308;28;20587;-67
2022/10/15 11:01:52;;;;;;;34.88;27.15;;;;;;;;;;5043642;28;20017;-67
2022/10/15 11:04:21;;;;;;;39.38;29.63;;;;;;;;;;5040029;28;20086;-67
2022/10/15 11:06:52;;;;;;;35.13;27.70;;;;;;;;;;5041825;28;20018;-67
2022/10/15 11:09:17;;;;;;;34.78;28.50;;;;;;;;;;5043311;28;20029;-67
2022/10/15 11:12:01;;;;;;;36.65;29.80;;;;;;;;;;5038640;28;20725;-68
2022/10/15 11:14:45;;;;;;;32.88;26.33;;;;;;;;;;5043560;28;20059;-68
2022/10/15 11:17:21;;;;;;;36.20;28.38;;;;;;;;;;5047042;28;20025;-68
2022/10/15 11:19:51;;;;;;;31.02;24.70;;;;;;;;;;5040444;28;20156;-68
2022/10/15 11:22:19;;;;;;;31.85;26.50;;;;;;;;;;5040007;28;20029;-68
2022/10/15 11:24:53;;;;;;;33.83;25.67;;;;;;;;;;5041437;28;20030;-67
2022/10/15 11:27:21;;;;;;;30.53;26.90;;;;;;;;;;5040892;28;20124;-68
2022/10/15 11:29:46;;;;;;;29.48;25.00;;;;;;;;;;5041256;28;20025;-68
2022/10/15 11:32:25;;;;;;;32.13;25.83;;;;;;;;;;5041026;28;20025;-68
2022/10/15 11:34:56;;;;;;;29.40;25.27;;;;;;;;;;5041404;28;20192;-68
2022/10/15 11:37:31;;;;;;;29.23;25.25;;;;;;;;;;5042074;28;20032;-67
2022/10/15 11:40:33;;;;;;;29.33;25.15;;;;;;;;;;5042792;28;20479;-67
2022/10/15 11:43:06;;;;;;;29.23;24.15;;;;;;;;;;4985834;28;20107;-68
2022/10/15 11:45:31;;;;;;;27.25;24.25;;;;;;;;;;5002301;28;20065;-67
2022/10/15 11:48:00;;;;;;;28.90;24.35;;;;;;;;;;5002382;28;20109;-68
2022/10/15 11:50:28;;;;;;;31.23;26.25;;;;;;;;;;4984675;28;20042;-68
2022/10/15 11:52:56;;;;;;;32.00;26.45;;;;;;;;;;5001713;28;20024;-68
2022/10/15 11:55:23;;;;;;;29.30;26.08;;;;;;;;;;5000001;28;20137;-68
2022/10/15 11:57:50;;;;;;;32.53;26.13;;;;;;;;;;4999024;28;20040;-68
2022/10/15 12:00:30;;;;;;;33.28;28.08;;;;;;;;;;5000983;28;20503;-68
2022/10/15 12:02:58;;;;;;;33.63;28.42;;;;;;;;;;5000566;28;20030;-67
2022/10/15 12:05:29;;;;;;;35.03;31.23;;;;;;;;;;5003044;28;20216;-67
2022/10/15 12:07:54;;;;;;;35.78;29.90;;;;;;;;;;5000259;28;20052;-67
2022/10/15 12:10:43;;;;;;;32.78;28.77;;;;;;;;;;5001051;28;20034;-69
2022/10/15 12:13:13;;;;;;;35.33;30.17;;;;;;;;;;4978996;28;20083;-67
2022/10/15 12:15:42;;;;;;;35.35;29.15;;;;;;;;;;5001230;28;20085;-67
2022/10/15 12:18:13;;;;;;;31.40;27.42;;;;;;;;;;5018914;28;20060;-68
2022/10/15 12:20:40;;;;;;;35.83;28.95;;;;;;;;;;5020119;28;20044;-68
2022/10/15 12:23:20;;;;;;;30.88;25.42;;;;;;;;;;5018818;28;20025;-67
2022/10/15 12:25:47;;;;;;;38.92;29.90;;;;;;;;;;5017057;28;20832;-68
2022/10/15 12:28:27;;;;;;;33.92;29.75;;;;;;;;;;5017820;28;20033;-68
2022/10/15 12:31:00;;;;;;;32.33;27.70;;;;;;;;;;5019498;28;20049;-67
2022/10/15 12:33:25;;;;;;;36.53;28.73;;;;;;;;;;5021035;28;20068;-66
2022/10/15 12:35:55;;;;;;;33.63;28.33;;;;;;;;;;5018873;28;20112;-66
2022/10/15 12:38:25;;;;;;;37.80;28.85;;;;;;;;;;5020375;28;20064;-68
2022/10/15 12:41:17;;;;;;;33.20;25.83;;;;;;;;;;5019301;28;20059;-68
2022/10/15 12:43:44;;;;;;;36.38;30.42;;;;;;;;;;5021176;28;20099;-68
2022/10/15 12:46:10;;;;;;;34.90;28.67;;;;;;;;;;5019974;28;20029;-67
2022/10/15 12:48:40;;;;;;;34.30;29.65;;;;;;;;;;5017738;28;20049;-67
2022/10/15 12:51:15;;;;;;;32.67;28.33;;;;;;;;;;5013875;28;20033;-68
2022/10/15 12:53:41;;;;;;;35.97;29.70;;;;;;;;;;5015428;28;20105;-68
2022/10/15 12:56:09;;;;;;;31.02;27.52;;;;;;;;;;5015933;28;20449;-68
2022/10/15 12:58:41;;;;;;;33.50;29.75;;;;;;;;;;5015429;28;20476;-68
2022/10/15 13:01:12;;;;;;;35.15;29.48;;;;;;;;;;5020261;28;20025;-69
2022/10/15 13:03:59;;;;;;;34.97;29.25;;;;;;;;;;5020002;28;20105;-68
2022/10/15 13:06:29;;;;;;;34.05;29.95;;;;;;;;;;5019281;28;20500;-68
2022/10/15 13:09:09;;;;;;;33.15;27.02;;;;;;;;;;5017620;28;20473;-69
2022/10/15 13:11:48;;;;;;;47.72;28.10;;;;;;;;;;5017274;28;20657;-68
2022/10/15 13:14:25;;;;;;;34.20;27.17;;;;;;;;;;5029370;28;20084;-68
2022/10/15 13:16:51;;;;;;;34.05;28.90;;;;;;;;;;5037846;28;20574;-68
2022/10/15 13:19:18;;;;;;;34.65;27.67;;;;;;;;;;5038742;28;20079;-68
2022/10/15 13:21:51;;;;;;;32.78;28.73;;;;;;;;;;5037973;28;20021;-68
2022/10/15 13:24:17;;;;;;;33.90;28.55;;;;;;;;;;5039824;28;20126;-69
2022/10/15 13:26:43;;;;;;;33.55;29.40;;;;;;;;;;5039380;28;20029;-68
2022/10/15 13:29:15;;;;;;;33.58;28.27;;;;;;;;;;5038428;28;20894;-68
2022/10/15 13:31:43;;;;;;;34.72;29.20;;;;;;;;;;5038294;28;20033;-68
2022/10/15 13:34:15;;;;;;;33.65;28.38;;;;;;;;;;5040414;28;20464;-68
2022/10/15 13:36:40;;;;;;;34.30;29.65;;;;;;;;;;5041090;28;20115;-68
2022/10/15 13:39:07;;;;;;;33.33;29.65;;;;;;;;;;5038136;28;20039;-70
2022/10/15 13:41:36;;;;;;;35.63;29.83;;;;;;;;;;5040735;28;20012;-67
2022/10/15 13:44:02;;;;;;;34.38;29.30;;;;;;;;;;5037934;28;20479;-67
2022/10/15 13:46:29;;;;;;;36.60;30.80;;;;;;;;;;5039363;28;20025;-67
2022/10/15 13:48:55;;;;;;;37.15;31.88;;;;;;;;;;5039413;28;20095;-67
2022/10/15 13:51:21;;;;;;;40.42;34.70;;;;;;;;;;5042161;28;20044;-68
2022/10/15 13:53:46;;;;;;;44.47;32.20;;;;;;;;;;5041233;28;20029;-67
2022/10/15 13:56:28;;;;;;;42.42;36.10;;;;;;;;;;5041183;28;20033;-67
2022/10/15 13:58:54;;;;;;;43.25;36.33;;;;;;;;;;5037527;28;20014;-66
2022/10/15 14:01:21;;;;;;;39.33;34.28;;;;;;;;;;5038994;28;20032;-67
2022/10/15 14:03:50;;;;;;;51.42;41.05;;;;;;;;;;5039712;28;20081;-67
2022/10/15 14:06:20;;;;;;;43.90;37.75;;;;;;;;;;5040337;28;20371;-67
2022/10/15 14:08:47;;;;;;;43.83;35.60;;;;;;;;;;5038256;28;20031;-67
2022/10/15 14:11:12;;;;;;;39.47;34.65;;;;;;;;;;5036724;28;20528;-67
2022/10/15 14:13:45;;;;;;;43.03;36.78;;;;;;;;;;5037722;28;20143;-66
2022/10/15 14:16:31;;;;;;;40.70;34.58;;;;;;;;;;5038100;28;20115;-68
2022/10/15 14:19:05;;;;;;;36.72;32.67;;;;;;;;;;5038780;28;20033;-66
2022/10/15 14:21:31;;;;;;;39.45;33.35;;;;;;;;;;5038782;28;20154;-68
2022/10/15 14:24:05;;;;;;;43.20;34.88;;;;;;;;;;5037619;28;20113;-67
2022/10/15 14:26:31;;;;;;;38.20;32.35;;;;;;;;;;5038492;28;20033;-67
2022/10/15 14:28:56;;;;;;;36.15;30.60;;;;;;;;;;5037265;28;20029;-67
2022/10/15 14:31:44;;;;;;;47.90;35.58;;;;;;;;;;5034058;28;20024;-67
2022/10/15 14:34:24;;;;;;;39.28;33.15;;;;;;;;;;5027124;28;20029;-66
2022/10/15 14:36:50;;;;;;;44.45;35.70;;;;;;;;;;5039189;28;20035;-69
2022/10/15 14:39:31;;;;;;;42.58;34.22;;;;;;;;;;5036493;28;20029;-67
2022/10/15 14:41:58;;;;;;;47.63;38.80;;;;;;;;;;5038097;28;20755;-67